sensor_id;sensor_type;location;lat;lon;timestamp;temperature;humidity
25250;DHT22;13201;51.148;13.738;2022-07-17T00:00:36;12.40;99.90
25250;DHT22;13201;51.148;13.738;2022-07-17T00:03:01;12.50;99.90
25250;DHT22;13201;51.148;13.738;2022-07-17T00:05:27;12.40;99.90
25250;DHT22;13201;51.148;13.738;2022-07-17T00:07:53;12.40;99.90
25250;DHT22;13201;51.148;13.738;2022-07-17T00:10:19;12.50;99.90
25250;DHT22;13201;51.148;13.738;2022-07-17T00:12:45;12.70;99.90
25250;DHT22;13201;51.148;13.738;2022-07-17T00:15:11;12.40;99.90
25250;DHT22;13201;51.148;13.738;2022-07-17T00:17:36;12.50;99.90
25250;DHT22;13201;51.148;13.738;2022-07-17T00:20:03;12.30;99.90
25250;DHT22;13201;51.148;13.738;2022-07-17T00:22:29;12.20;99.90
25250;DHT22;13201;51.148;13.738;2022-07-17T00:24:54;12.20;99.90
25250;DHT22;13201;51.148;13.738;2022-07-17T00:27:20;12.20;99.90
25250;DHT22;13201;51.148;13.738;2022-07-17T00:29:45;12.10;99.90
25250;DHT22;13201;51.148;13.738;2022-07-17T00:32:11;12.10;99.90
25250;DHT22;13201;51.148;13.738;2022-07-17T00:34:37;12.00;99.90
25250;DHT22;13201;51.148;13.738;2022-07-17T00:37:02;11.90;99.90
25250;DHT22;13201;51.148;13.738;2022-07-17T00:39:28;11.90;99.90
25250;DHT22;13201;51.148;13.738;2022-07-17T00:41:54;11.80;99.90
25250;DHT22;13201;51.148;13.738;2022-07-17T00:44:19;11.90;99.90
25250;DHT22;13201;51.148;13.738;2022-07-17T00:46:45;11.80;99.90
25250;DHT22;13201;51.148;13.738;2022-07-17T00:49:10;11.90;99.90
25250;DHT22;13201;51.148;13.738;2022-07-17T00:51:36;11.70;99.90
25250;DHT22;13201;51.148;13.738;2022-07-17T00:54:02;11.70;99.90
25250;DHT22;13201;51.148;13.738;2022-07-17T00:56:28;11.70;99.90
25250;DHT22;13201;51.148;13.738;2022-07-17T00:58:54;11.70;99.90
25250;DHT22;13201;51.148;13.738;2022-07-17T01:01:20;11.70;99.90
25250;DHT22;13201;51.148;13.738;2022-07-17T01:03:46;11.70;99.90
25250;DHT22;13201;51.148;13.738;2022-07-17T01:06:12;11.60;99.90
25250;DHT22;13201;51.148;13.738;2022-07-17T01:32:40;10.30;99.90
25250;DHT22;13201;51.148;13.738;2022-07-17T01:35:08;10.00;99.90
25250;DHT22;13201;51.148;13.738;2022-07-17T01:37:35;10.00;99.90
25250;DHT22;13201;51.148;13.738;2022-07-17T01:40:01;10.10;99.90
25250;DHT22;13201;51.148;13.738;2022-07-17T01:42:27;10.20;99.90
25250;DHT22;13201;51.148;13.738;2022-07-17T01:44:54;10.50;99.90
25250;DHT22;13201;51.148;13.738;2022-07-17T01:47:21;10.50;99.90
25250;DHT22;13201;51.148;13.738;2022-07-17T01:49:48;10.50;99.90
25250;DHT22;13201;51.148;13.738;2022-07-17T01:52:14;10.70;99.90
25250;DHT22;13201;51.148;13.738;2022-07-17T01:54:41;10.70;99.90
25250;DHT22;13201;51.148;13.738;2022-07-17T01:57:07;10.70;99.90
25250;DHT22;13201;51.148;13.738;2022-07-17T01:59:33;10.70;99.90
25250;DHT22;13201;51.148;13.738;2022-07-17T02:01:59;10.70;99.90
25250;DHT22;13201;51.148;13.738;2022-07-17T02:04:24;10.70;99.90
25250;DHT22;13201;51.148;13.738;2022-07-17T02:06:52;10.60;99.90
25250;DHT22;13201;51.148;13.738;2022-07-17T02:09:18;10.60;99.90
25250;DHT22;13201;51.148;13.738;2022-07-17T02:11:43;10.60;99.90
25250;DHT22;13201;51.148;13.738;2022-07-17T02:14:09;10.40;99.90
25250;DHT22;13201;51.148;13.738;2022-07-17T02:16:34;10.30;99.90
25250;DHT22;13201;51.148;13.738;2022-07-17T02:19:00;10.40;99.90
25250;DHT22;13201;51.148;13.738;2022-07-17T02:21:26;10.20;99.90
25250;DHT22;13201;51.148;13.738;2022-07-17T02:23:51;10.20;99.90
25250;DHT22;13201;51.148;13.738;2022-07-17T02:26:17;10.20;99.90
25250;DHT22;13201;51.148;13.738;2022-07-17T02:28:42;10.30;99.90
25250;DHT22;13201;51.148;13.738;2022-07-17T02:31:09;10.30;99.90
25250;DHT22;13201;51.148;13.738;2022-07-17T02:33:34;10.30;99.90
25250;DHT22;13201;51.148;13.738;2022-07-17T02:36:00;10.20;99.90
25250;DHT22;13201;51.148;13.738;2022-07-17T02:38:27;10.40;99.90
25250;DHT22;13201;51.148;13.738;2022-07-17T02:40:53;10.40;99.90
25250;DHT22;13201;51.148;13.738;2022-07-17T02:43:18;10.40;99.90
25250;DHT22;13201;51.148;13.738;2022-07-17T02:45:44;10.30;99.90
25250;DHT22;13201;51.148;13.738;2022-07-17T02:48:10;10.20;99.90
25250;DHT22;13201;51.148;13.738;2022-07-17T02:50:35;10.10;99.90
25250;DHT22;13201;51.148;13.738;2022-07-17T02:53:01;10.00;99.90
25250;DHT22;13201;51.148;13.738;2022-07-17T02:55:27;9.90;99.90
25250;DHT22;13201;51.148;13.738;2022-07-17T02:57:53;9.70;99.90
25250;DHT22;13201;51.148;13.738;2022-07-17T03:00:19;9.90;99.90
25250;DHT22;13201;51.148;13.738;2022-07-17T03:02:46;9.80;99.90
25250;DHT22;13201;51.148;13.738;2022-07-17T03:05:13;9.90;99.90
25250;DHT22;13201;51.148;13.738;2022-07-17T03:07:39;10.00;99.90
25250;DHT22;13201;51.148;13.738;2022-07-17T03:10:05;10.00;99.90
25250;DHT22;13201;51.148;13.738;2022-07-17T03:12:31;10.00;99.90
25250;DHT22;13201;51.148;13.738;2022-07-17T03:14:57;9.80;99.90
25250;DHT22;13201;51.148;13.738;2022-07-17T03:17:22;9.50;99.90
25250;DHT22;13201;51.148;13.738;2022-07-17T03:19:48;9.70;99.90
25250;DHT22;13201;51.148;13.738;2022-07-17T03:22:14;9.60;99.90
25250;DHT22;13201;51.148;13.738;2022-07-17T03:24:39;9.90;99.90
25250;DHT22;13201;51.148;13.738;2022-07-17T03:27:05;10.00;99.90
25250;DHT22;13201;51.148;13.738;2022-07-17T03:29:30;9.90;99.90
25250;DHT22;13201;51.148;13.738;2022-07-17T03:31:56;10.00;99.90
25250;DHT22;13201;51.148;13.738;2022-07-17T03:34:22;10.10;99.90
25250;DHT22;13201;51.148;13.738;2022-07-17T03:36:47;10.20;99.90
25250;DHT22;13201;51.148;13.738;2022-07-17T03:39:13;10.20;99.90
25250;DHT22;13201;51.148;13.738;2022-07-17T03:41:39;10.10;99.90
25250;DHT22;13201;51.148;13.738;2022-07-17T03:44:05;9.70;99.90
25250;DHT22;13201;51.148;13.738;2022-07-17T03:46:31;9.70;99.90
25250;DHT22;13201;51.148;13.738;2022-07-17T03:48:57;9.90;99.90
25250;DHT22;13201;51.148;13.738;2022-07-17T03:51:22;9.90;99.90
25250;DHT22;13201;51.148;13.738;2022-07-17T03:53:48;10.10;99.90
25250;DHT22;13201;51.148;13.738;2022-07-17T03:56:14;10.20;99.90
25250;DHT22;13201;51.148;13.738;2022-07-17T03:58:39;10.30;99.90
25250;DHT22;13201;51.148;13.738;2022-07-17T04:01:05;10.30;99.90
25250;DHT22;13201;51.148;13.738;2022-07-17T04:03:31;10.20;99.90
25250;DHT22;13201;51.148;13.738;2022-07-17T04:05:56;10.20;99.90
25250;DHT22;13201;51.148;13.738;2022-07-17T04:08:22;10.20;99.90
25250;DHT22;13201;51.148;13.738;2022-07-17T04:10:48;10.30;99.90
25250;DHT22;13201;51.148;13.738;2022-07-17T04:13:13;10.40;99.90
25250;DHT22;13201;51.148;13.738;2022-07-17T04:15:39;10.50;99.90
25250;DHT22;13201;51.148;13.738;2022-07-17T04:18:37;10.70;99.90
25250;DHT22;13201;51.148;13.738;2022-07-17T04:21:08;10.70;99.90
25250;DHT22;13201;51.148;13.738;2022-07-17T04:23:34;10.80;99.90
25250;DHT22;13201;51.148;13.738;2022-07-17T04:26:01;10.70;99.90
25250;DHT22;13201;51.148;13.738;2022-07-17T04:28:26;11.00;99.90
25250;DHT22;13201;51.148;13.738;2022-07-17T04:30:52;10.80;99.90
25250;DHT22;13201;51.148;13.738;2022-07-17T04:33:18;11.00;99.90
25250;DHT22;13201;51.148;13.738;2022-07-17T04:35:43;11.00;99.90
25250;DHT22;13201;51.148;13.738;2022-07-17T04:38:10;11.20;99.90
25250;DHT22;13201;51.148;13.738;2022-07-17T04:40:37;11.50;99.90
25250;DHT22;13201;51.148;13.738;2022-07-17T04:43:04;11.50;99.90
25250;DHT22;13201;51.148;13.738;2022-07-17T04:45:30;11.70;99.90
25250;DHT22;13201;51.148;13.738;2022-07-17T04:47:56;11.90;99.90
25250;DHT22;13201;51.148;13.738;2022-07-17T04:50:22;12.00;99.90
25250;DHT22;13201;51.148;13.738;2022-07-17T04:52:48;12.10;99.90
25250;DHT22;13201;51.148;13.738;2022-07-17T04:55:14;12.30;99.90
25250;DHT22;13201;51.148;13.738;2022-07-17T04:57:40;12.40;99.90
25250;DHT22;13201;51.148;13.738;2022-07-17T05:00:06;12.50;99.90
25250;DHT22;13201;51.148;13.738;2022-07-17T05:02:33;12.50;99.90
25250;DHT22;13201;51.148;13.738;2022-07-17T05:04:59;12.70;99.90
25250;DHT22;13201;51.148;13.738;2022-07-17T05:07:24;12.70;99.90
25250;DHT22;13201;51.148;13.738;2022-07-17T05:09:50;12.80;99.90
25250;DHT22;13201;51.148;13.738;2022-07-17T05:12:16;13.00;99.90
25250;DHT22;13201;51.148;13.738;2022-07-17T05:14:42;13.20;99.90
25250;DHT22;13201;51.148;13.738;2022-07-17T05:17:07;13.30;99.90
25250;DHT22;13201;51.148;13.738;2022-07-17T05:19:33;13.30;99.90
25250;DHT22;13201;51.148;13.738;2022-07-17T05:21:59;13.40;99.90
25250;DHT22;13201;51.148;13.738;2022-07-17T05:24:25;13.50;99.90
25250;DHT22;13201;51.148;13.738;2022-07-17T05:26:50;13.60;99.90
25250;DHT22;13201;51.148;13.738;2022-07-17T05:29:16;13.60;99.90
25250;DHT22;13201;51.148;13.738;2022-07-17T05:31:42;13.80;99.90
25250;DHT22;13201;51.148;13.738;2022-07-17T05:34:07;14.00;99.90
25250;DHT22;13201;51.148;13.738;2022-07-17T05:36:33;14.10;99.90
25250;DHT22;13201;51.148;13.738;2022-07-17T05:38:59;14.30;99.90
25250;DHT22;13201;51.148;13.738;2022-07-17T05:41:24;14.40;99.90
25250;DHT22;13201;51.148;13.738;2022-07-17T05:43:50;14.50;99.90
25250;DHT22;13201;51.148;13.738;2022-07-17T05:46:16;14.50;99.90
25250;DHT22;13201;51.148;13.738;2022-07-17T05:48:41;14.80;99.90
25250;DHT22;13201;51.148;13.738;2022-07-17T05:51:07;14.70;99.90
25250;DHT22;13201;51.148;13.738;2022-07-17T05:53:33;14.80;99.90
25250;DHT22;13201;51.148;13.738;2022-07-17T05:55:59;14.70;99.90
25250;DHT22;13201;51.148;13.738;2022-07-17T05:58:25;14.90;99.90
25250;DHT22;13201;51.148;13.738;2022-07-17T06:00:50;14.90;99.90
25250;DHT22;13201;51.148;13.738;2022-07-17T06:03:17;15.00;99.90
25250;DHT22;13201;51.148;13.738;2022-07-17T06:05:43;15.00;99.90
25250;DHT22;13201;51.148;13.738;2022-07-17T06:08:08;15.10;99.90
25250;DHT22;13201;51.148;13.738;2022-07-17T06:10:34;15.10;99.90
25250;DHT22;13201;51.148;13.738;2022-07-17T06:13:00;15.30;99.90
25250;DHT22;13201;51.148;13.738;2022-07-17T06:15:26;15.30;99.90
25250;DHT22;13201;51.148;13.738;2022-07-17T06:17:52;15.30;99.90
25250;DHT22;13201;51.148;13.738;2022-07-17T06:20:18;15.40;99.90
25250;DHT22;13201;51.148;13.738;2022-07-17T06:22:44;15.40;99.90
25250;DHT22;13201;51.148;13.738;2022-07-17T06:25:11;15.60;99.90
25250;DHT22;13201;51.148;13.738;2022-07-17T06:27:41;15.80;99.90
25250;DHT22;13201;51.148;13.738;2022-07-17T06:30:09;15.90;99.90
25250;DHT22;13201;51.148;13.738;2022-07-17T06:32:35;16.00;99.90
25250;DHT22;13201;51.148;13.738;2022-07-17T06:35:00;16.00;99.90
25250;DHT22;13201;51.148;13.738;2022-07-17T06:37:26;16.20;99.90
25250;DHT22;13201;51.148;13.738;2022-07-17T06:39:52;16.30;99.90
25250;DHT22;13201;51.148;13.738;2022-07-17T06:42:17;16.10;99.90
25250;DHT22;13201;51.148;13.738;2022-07-17T06:44:43;16.10;99.90
25250;DHT22;13201;51.148;13.738;2022-07-17T06:47:08;15.90;99.90
25250;DHT22;13201;51.148;13.738;2022-07-17T06:49:34;16.20;99.90
25250;DHT22;13201;51.148;13.738;2022-07-17T06:52:00;16.30;99.90
25250;DHT22;13201;51.148;13.738;2022-07-17T06:54:26;16.40;99.90
25250;DHT22;13201;51.148;13.738;2022-07-17T06:56:53;16.40;99.90
25250;DHT22;13201;51.148;13.738;2022-07-17T06:59:19;16.50;99.90
25250;DHT22;13201;51.148;13.738;2022-07-17T07:01:44;16.50;99.90
25250;DHT22;13201;51.148;13.738;2022-07-17T07:04:10;16.50;99.90
25250;DHT22;13201;51.148;13.738;2022-07-17T07:06:36;16.60;99.90
25250;DHT22;13201;51.148;13.738;2022-07-17T07:09:01;16.90;99.90
25250;DHT22;13201;51.148;13.738;2022-07-17T07:11:27;16.90;99.90
25250;DHT22;13201;51.148;13.738;2022-07-17T07:13:53;16.80;99.90
25250;DHT22;13201;51.148;13.738;2022-07-17T07:16:19;16.90;99.90
25250;DHT22;13201;51.148;13.738;2022-07-17T07:18:46;16.90;99.90
25250;DHT22;13201;51.148;13.738;2022-07-17T07:21:11;17.10;99.90
25250;DHT22;13201;51.148;13.738;2022-07-17T07:23:37;17.10;99.90
25250;DHT22;13201;51.148;13.738;2022-07-17T07:26:03;17.00;99.90
25250;DHT22;13201;51.148;13.738;2022-07-17T07:28:28;17.10;99.90
25250;DHT22;13201;51.148;13.738;2022-07-17T07:30:54;17.10;99.90
25250;DHT22;13201;51.148;13.738;2022-07-17T07:33:20;17.10;99.90
25250;DHT22;13201;51.148;13.738;2022-07-17T07:35:45;17.40;99.90
25250;DHT22;13201;51.148;13.738;2022-07-17T07:38:11;17.60;99.90
25250;DHT22;13201;51.148;13.738;2022-07-17T07:40:37;17.80;99.90
25250;DHT22;13201;51.148;13.738;2022-07-17T07:43:02;17.60;99.90
25250;DHT22;13201;51.148;13.738;2022-07-17T07:45:28;17.60;99.90
25250;DHT22;13201;51.148;13.738;2022-07-17T07:47:54;17.80;99.90
25250;DHT22;13201;51.148;13.738;2022-07-17T07:50:22;17.70;99.90
25250;DHT22;13201;51.148;13.738;2022-07-17T07:52:49;17.60;99.90
25250;DHT22;13201;51.148;13.738;2022-07-17T07:55:15;17.60;99.90
25250;DHT22;13201;51.148;13.738;2022-07-17T07:57:41;17.90;99.90
25250;DHT22;13201;51.148;13.738;2022-07-17T08:00:08;18.00;99.90
25250;DHT22;13201;51.148;13.738;2022-07-17T08:02:34;18.10;99.90
25250;DHT22;13201;51.148;13.738;2022-07-17T08:05:00;18.30;99.90
25250;DHT22;13201;51.148;13.738;2022-07-17T08:07:27;18.40;99.90
25250;DHT22;13201;51.148;13.738;2022-07-17T08:09:53;18.60;99.90
25250;DHT22;13201;51.148;13.738;2022-07-17T08:12:19;18.80;99.90
25250;DHT22;13201;51.148;13.738;2022-07-17T08:14:45;18.60;99.90
25250;DHT22;13201;51.148;13.738;2022-07-17T08:17:11;18.50;99.90
25250;DHT22;13201;51.148;13.738;2022-07-17T08:19:36;18.50;99.90
25250;DHT22;13201;51.148;13.738;2022-07-17T08:22:02;18.20;99.90
25250;DHT22;13201;51.148;13.738;2022-07-17T08:24:28;18.30;99.90
25250;DHT22;13201;51.148;13.738;2022-07-17T08:26:54;18.40;99.90
25250;DHT22;13201;51.148;13.738;2022-07-17T08:29:20;18.30;99.90
25250;DHT22;13201;51.148;13.738;2022-07-17T08:31:46;18.10;99.90
25250;DHT22;13201;51.148;13.738;2022-07-17T08:34:11;18.50;99.90
25250;DHT22;13201;51.148;13.738;2022-07-17T08:36:40;18.40;99.90
25250;DHT22;13201;51.148;13.738;2022-07-17T08:39:05;18.80;99.90
25250;DHT22;13201;51.148;13.738;2022-07-17T08:41:32;19.10;99.90
25250;DHT22;13201;51.148;13.738;2022-07-17T08:44:06;19.20;99.90
25250;DHT22;13201;51.148;13.738;2022-07-17T08:46:36;18.90;99.90
25250;DHT22;13201;51.148;13.738;2022-07-17T08:49:03;19.00;99.90
25250;DHT22;13201;51.148;13.738;2022-07-17T08:51:30;19.30;99.90
25250;DHT22;13201;51.148;13.738;2022-07-17T08:53:56;19.20;99.90
25250;DHT22;13201;51.148;13.738;2022-07-17T08:56:22;19.50;99.90
25250;DHT22;13201;51.148;13.738;2022-07-17T08:58:48;19.20;99.60
25250;DHT22;13201;51.148;13.738;2022-07-17T09:01:15;19.10;99.70
25250;DHT22;13201;51.148;13.738;2022-07-17T09:03:41;19.40;99.90
25250;DHT22;13201;51.148;13.738;2022-07-17T09:06:21;19.90;99.90
25250;DHT22;13201;51.148;13.738;2022-07-17T09:08:47;19.70;99.70
25250;DHT22;13201;51.148;13.738;2022-07-17T09:11:12;19.60;99.80
25250;DHT22;13201;51.148;13.738;2022-07-17T09:13:44;19.60;99.70
25250;DHT22;13201;51.148;13.738;2022-07-17T09:16:11;19.80;99.90
25250;DHT22;13201;51.148;13.738;2022-07-17T09:18:48;20.10;99.30
25250;DHT22;13201;51.148;13.738;2022-07-17T09:21:32;20.40;99.10
25250;DHT22;13201;51.148;13.738;2022-07-17T09:23:59;19.60;99.00
25250;DHT22;13201;51.148;13.738;2022-07-17T09:26:26;19.60;99.00
25250;DHT22;13201;51.148;13.738;2022-07-17T09:28:52;19.90;99.10
25250;DHT22;13201;51.148;13.738;2022-07-17T09:31:29;20.10;99.20
25250;DHT22;13201;51.148;13.738;2022-07-17T09:33:56;20.00;98.70
25250;DHT22;13201;51.148;13.738;2022-07-17T09:36:22;20.30;99.20
25250;DHT22;13201;51.148;13.738;2022-07-17T09:38:52;20.10;99.40
25250;DHT22;13201;51.148;13.738;2022-07-17T09:41:19;20.20;98.50
25250;DHT22;13201;51.148;13.738;2022-07-17T09:44:01;20.50;98.60
25250;DHT22;13201;51.148;13.738;2022-07-17T09:46:32;20.80;97.90
25250;DHT22;13201;51.148;13.738;2022-07-17T09:49:03;20.90;98.20
25250;DHT22;13201;51.148;13.738;2022-07-17T09:51:34;21.10;97.80
25250;DHT22;13201;51.148;13.738;2022-07-17T09:54:02;21.10;98.40
25250;DHT22;13201;51.148;13.738;2022-07-17T09:56:30;21.30;97.30
25250;DHT22;13201;51.148;13.738;2022-07-17T10:01:26;20.70;97.90
25250;DHT22;13201;51.148;13.738;2022-07-17T10:03:52;20.80;96.90
25250;DHT22;13201;51.148;13.738;2022-07-17T10:06:20;20.80;97.50
25250;DHT22;13201;51.148;13.738;2022-07-17T10:08:46;21.00;97.00
25250;DHT22;13201;51.148;13.738;2022-07-17T10:11:13;21.30;97.00
25250;DHT22;13201;51.148;13.738;2022-07-17T10:13:44;21.30;96.40
25250;DHT22;13201;51.148;13.738;2022-07-17T10:16:11;21.10;96.50
25250;DHT22;13201;51.148;13.738;2022-07-17T10:21:13;21.60;96.80
25250;DHT22;13201;51.148;13.738;2022-07-17T10:23:46;22.10;96.20
25250;DHT22;13201;51.148;13.738;2022-07-17T10:26:13;22.00;95.80
25250;DHT22;13201;51.148;13.738;2022-07-17T10:28:46;22.10;95.80
25250;DHT22;13201;51.148;13.738;2022-07-17T10:31:29;22.00;95.70
25250;DHT22;13201;51.148;13.738;2022-07-17T10:34:03;22.40;95.90
25250;DHT22;13201;51.148;13.738;2022-07-17T10:36:37;22.40;95.40
25250;DHT22;13201;51.148;13.738;2022-07-17T10:39:13;22.20;95.80
25250;DHT22;13201;51.148;13.738;2022-07-17T10:41:39;22.60;96.20
25250;DHT22;13201;51.148;13.738;2022-07-17T10:44:05;22.50;95.20
25250;DHT22;13201;51.148;13.738;2022-07-17T10:46:31;22.20;95.60
25250;DHT22;13201;51.148;13.738;2022-07-17T10:48:56;22.20;95.20
25250;DHT22;13201;51.148;13.738;2022-07-17T10:51:25;22.30;95.30
25250;DHT22;13201;51.148;13.738;2022-07-17T10:53:56;22.40;94.90
25250;DHT22;13201;51.148;13.738;2022-07-17T10:56:24;22.30;94.20
25250;DHT22;13201;51.148;13.738;2022-07-17T10:58:51;22.70;94.80
25250;DHT22;13201;51.148;13.738;2022-07-17T11:01:19;23.10;94.50
25250;DHT22;13201;51.148;13.738;2022-07-17T11:03:53;22.90;94.10
25250;DHT22;13201;51.148;13.738;2022-07-17T11:06:33;23.00;94.30
25250;DHT22;13201;51.148;13.738;2022-07-17T11:09:08;23.30;93.70
25250;DHT22;13201;51.148;13.738;2022-07-17T11:11:48;23.60;93.40
25250;DHT22;13201;51.148;13.738;2022-07-17T11:14:21;23.80;93.50
25250;DHT22;13201;51.148;13.738;2022-07-17T11:16:49;23.60;92.80
25250;DHT22;13201;51.148;13.738;2022-07-17T11:19:37;23.60;93.50
25250;DHT22;13201;51.148;13.738;2022-07-17T11:22:10;23.90;93.60
25250;DHT22;13201;51.148;13.738;2022-07-17T11:24:40;23.80;92.30
25250;DHT22;13201;51.148;13.738;2022-07-17T11:27:06;24.00;92.70
25250;DHT22;13201;51.148;13.738;2022-07-17T11:29:39;24.20;91.50
25250;DHT22;13201;51.148;13.738;2022-07-17T11:32:05;23.70;91.20
25250;DHT22;13201;51.148;13.738;2022-07-17T11:34:31;24.00;91.30
25250;DHT22;13201;51.148;13.738;2022-07-17T11:37:04;24.30;91.40
25250;DHT22;13201;51.148;13.738;2022-07-17T11:39:41;24.40;90.50
25250;DHT22;13201;51.148;13.738;2022-07-17T11:42:09;23.90;90.30
25250;DHT22;13201;51.148;13.738;2022-07-17T11:44:35;24.00;90.50
25250;DHT22;13201;51.148;13.738;2022-07-17T11:47:01;24.40;90.00
25250;DHT22;13201;51.148;13.738;2022-07-17T11:49:28;24.10;89.80
25250;DHT22;13201;51.148;13.738;2022-07-17T11:51:57;24.50;90.70
25250;DHT22;13201;51.148;13.738;2022-07-17T11:54:24;24.20;88.90
25250;DHT22;13201;51.148;13.738;2022-07-17T11:56:57;24.50;89.40
25250;DHT22;13201;51.148;13.738;2022-07-17T11:59:30;24.90;88.60
25250;DHT22;13201;51.148;13.738;2022-07-17T12:01:56;24.40;87.90
25250;DHT22;13201;51.148;13.738;2022-07-17T12:04:22;24.20;88.00
25250;DHT22;13201;51.148;13.738;2022-07-17T12:06:59;24.30;87.20
25250;DHT22;13201;51.148;13.738;2022-07-17T12:09:29;23.90;86.80
25250;DHT22;13201;51.148;13.738;2022-07-17T12:11:59;24.20;87.00
25250;DHT22;13201;51.148;13.738;2022-07-17T12:14:25;24.60;86.60
25250;DHT22;13201;51.148;13.738;2022-07-17T12:16:51;24.10;86.00
25250;DHT22;13201;51.148;13.738;2022-07-17T12:19:19;24.30;84.70
25250;DHT22;13201;51.148;13.738;2022-07-17T12:26:47;25.00;82.10
25250;DHT22;13201;51.148;13.738;2022-07-17T12:29:13;25.70;82.70
25250;DHT22;13201;51.148;13.738;2022-07-17T12:31:38;25.40;83.00
25250;DHT22;13201;51.148;13.738;2022-07-17T12:34:04;25.40;83.00
25250;DHT22;13201;51.148;13.738;2022-07-17T12:36:29;25.40;82.70
25250;DHT22;13201;51.148;13.738;2022-07-17T12:38:55;26.00;81.30
25250;DHT22;13201;51.148;13.738;2022-07-17T12:41:21;26.10;80.90
25250;DHT22;13201;51.148;13.738;2022-07-17T12:43:47;25.70;80.20
25250;DHT22;13201;51.148;13.738;2022-07-17T12:46:12;25.30;80.00
25250;DHT22;13201;51.148;13.738;2022-07-17T12:48:38;25.20;79.00
25250;DHT22;13201;51.148;13.738;2022-07-17T12:51:06;25.70;80.00
25250;DHT22;13201;51.148;13.738;2022-07-17T12:53:32;25.60;79.60
25250;DHT22;13201;51.148;13.738;2022-07-17T12:55:57;25.60;78.60
25250;DHT22;13201;51.148;13.738;2022-07-17T12:58:23;25.30;77.30
25250;DHT22;13201;51.148;13.738;2022-07-17T13:00:49;25.50;77.50
25250;DHT22;13201;51.148;13.738;2022-07-17T13:03:15;26.10;80.10
25250;DHT22;13201;51.148;13.738;2022-07-17T13:05:42;25.80;77.50
25250;DHT22;13201;51.148;13.738;2022-07-17T13:08:07;25.30;78.20
25250;DHT22;13201;51.148;13.738;2022-07-17T13:10:36;25.70;76.30
25250;DHT22;13201;51.148;13.738;2022-07-17T13:13:02;26.50;76.30
25250;DHT22;13201;51.148;13.738;2022-07-17T13:15:29;26.20;75.10
25250;DHT22;13201;51.148;13.738;2022-07-17T13:17:55;26.30;74.90
25250;DHT22;13201;51.148;13.738;2022-07-17T13:20:21;26.70;75.80
25250;DHT22;13201;51.148;13.738;2022-07-17T13:22:47;26.90;75.90
25250;DHT22;13201;51.148;13.738;2022-07-17T13:25:12;27.40;74.30
25250;DHT22;13201;51.148;13.738;2022-07-17T13:27:38;27.90;74.40
25250;DHT22;13201;51.148;13.738;2022-07-17T13:30:04;28.00;75.00
25250;DHT22;13201;51.148;13.738;2022-07-17T13:32:30;27.80;73.10
25250;DHT22;13201;51.148;13.738;2022-07-17T13:34:55;27.50;72.40
25250;DHT22;13201;51.148;13.738;2022-07-17T13:37:21;28.00;75.00
25250;DHT22;13201;51.148;13.738;2022-07-17T13:39:46;27.70;73.30
25250;DHT22;13201;51.148;13.738;2022-07-17T13:42:13;27.90;73.50
25250;DHT22;13201;51.148;13.738;2022-07-17T13:44:38;27.50;73.20
25250;DHT22;13201;51.148;13.738;2022-07-17T13:47:04;27.70;73.30
25250;DHT22;13201;51.148;13.738;2022-07-17T13:49:30;28.40;72.90
25250;DHT22;13201;51.148;13.738;2022-07-17T13:51:55;28.30;69.30
25250;DHT22;13201;51.148;13.738;2022-07-17T13:54:21;27.90;68.50
25250;DHT22;13201;51.148;13.738;2022-07-17T13:56:47;28.30;68.60
25250;DHT22;13201;51.148;13.738;2022-07-17T13:59:13;28.60;70.40
25250;DHT22;13201;51.148;13.738;2022-07-17T14:01:38;28.80;68.20
25250;DHT22;13201;51.148;13.738;2022-07-17T14:04:04;28.70;68.10
25250;DHT22;13201;51.148;13.738;2022-07-17T14:06:30;28.60;67.40
25250;DHT22;13201;51.148;13.738;2022-07-17T14:08:55;28.90;67.50
25250;DHT22;13201;51.148;13.738;2022-07-17T14:11:21;29.20;67.00
25250;DHT22;13201;51.148;13.738;2022-07-17T14:13:47;29.00;64.50
25250;DHT22;13201;51.148;13.738;2022-07-17T14:16:12;29.40;65.30
25250;DHT22;13201;51.148;13.738;2022-07-17T14:18:38;30.00;65.40
25250;DHT22;13201;51.148;13.738;2022-07-17T14:21:31;29.40;63.80
25250;DHT22;13201;51.148;13.738;2022-07-17T14:23:57;30.10;66.00
25250;DHT22;13201;51.148;13.738;2022-07-17T14:26:23;29.80;65.20
25250;DHT22;13201;51.148;13.738;2022-07-17T14:28:49;29.40;64.90
25250;DHT22;13201;51.148;13.738;2022-07-17T14:31:15;30.10;65.50
25250;DHT22;13201;51.148;13.738;2022-07-17T14:33:42;30.50;63.60
25250;DHT22;13201;51.148;13.738;2022-07-17T14:36:08;30.30;63.40
25250;DHT22;13201;51.148;13.738;2022-07-17T14:38:34;29.80;62.80
25250;DHT22;13201;51.148;13.738;2022-07-17T14:40:59;30.50;63.50
25250;DHT22;13201;51.148;13.738;2022-07-17T14:43:25;29.50;60.60
25250;DHT22;13201;51.148;13.738;2022-07-17T14:45:51;29.30;60.10
25250;DHT22;13201;51.148;13.738;2022-07-17T14:48:16;29.70;60.40
25250;DHT22;13201;51.148;13.738;2022-07-17T14:50:42;29.70;62.10
25250;DHT22;13201;51.148;13.738;2022-07-17T14:53:07;29.30;60.30
25250;DHT22;13201;51.148;13.738;2022-07-17T14:55:33;29.30;60.60
25250;DHT22;13201;51.148;13.738;2022-07-17T14:57:59;29.60;59.90
25250;DHT22;13201;51.148;13.738;2022-07-17T15:00:24;29.70;60.50
25250;DHT22;13201;51.148;13.738;2022-07-17T15:02:50;29.30;59.40
25250;DHT22;13201;51.148;13.738;2022-07-17T15:05:15;30.20;60.40
25250;DHT22;13201;51.148;13.738;2022-07-17T15:07:42;31.30;61.20
25250;DHT22;13201;51.148;13.738;2022-07-17T15:10:07;31.00;60.10
25250;DHT22;13201;51.148;13.738;2022-07-17T15:12:33;31.50;59.80
25250;DHT22;13201;51.148;13.738;2022-07-17T15:14:59;30.50;60.90
25250;DHT22;13201;51.148;13.738;2022-07-17T15:17:24;30.80;60.10
25250;DHT22;13201;51.148;13.738;2022-07-17T15:19:50;30.60;60.00
25250;DHT22;13201;51.148;13.738;2022-07-17T15:22:16;30.80;59.60
25250;DHT22;13201;51.148;13.738;2022-07-17T15:24:42;31.20;59.90
25250;DHT22;13201;51.148;13.738;2022-07-17T15:27:08;31.00;59.60
25250;DHT22;13201;51.148;13.738;2022-07-17T15:29:33;30.80;59.00
25250;DHT22;13201;51.148;13.738;2022-07-17T15:32:00;30.80;59.20
25250;DHT22;13201;51.148;13.738;2022-07-17T15:34:25;30.80;58.70
25250;DHT22;13201;51.148;13.738;2022-07-17T15:36:51;31.00;58.20
25250;DHT22;13201;51.148;13.738;2022-07-17T15:39:16;30.90;59.10
25250;DHT22;13201;51.148;13.738;2022-07-17T15:41:44;31.20;58.90
25250;DHT22;13201;51.148;13.738;2022-07-17T15:44:10;30.90;58.80
25250;DHT22;13201;51.148;13.738;2022-07-17T15:46:36;30.30;58.20
25250;DHT22;13201;51.148;13.738;2022-07-17T15:49:03;30.40;58.90